EDDE/ERF METAR and TAF weather

Enter ICAO airport designator
Station Type Date Time Source
EDDE METAR 2019/10/20 18:50 UTC NOAA

EDDE 201850Z 25005KT CAVOK 14/12 Q1010 NOSIG


Station Type Date Time Source
EDDE Decoded METAR 2019/10/20 18:50 UTC NOAA

Erfurt-Bindersleben, Germany (EDDE) 50-59N 010-58E 322M
Oct 20, 2019 - 02:50 PM EDT / 2019.10.20 1850 UTC
Wind: from the WSW (250 degrees) at 6 MPH (5 KT):0
Visibility: greater than 7 mile(s):0
Temperature: 57 F (14 C)
Dew Point: 53 F (12 C)
Relative Humidity: 87%
Pressure (altimeter): 29.83 in. Hg (1010 hPa)
ob: EDDE 201850Z 25005KT CAVOK 14/12 Q1010 NOSIG
cycle: 19

Station Type Date Time Source
EDDE TAF 2019/10/20 18:27 UTC NOAA

TAF TAF EDDE 201700Z 2018/2118 VRB03KT CAVOK
BECMG 2019/2021 20005KT
BECMG 2107/2110 26008KT

Example: see airport list